Terminal Aerodrome Forecast
Issued by NWS

Home | Current Version | Previous Version | Text Only | Print | Product List | Glossary On
Versions: 1 2 3 4 5 6 7 8 9 10 11 12 13 14 15 16 17 18 19 20 21 22 23 24 25 26
000
FTUS43 KSGF 240923 AAF
TAFJLN
TAF AMD
KJLN 240923Z 2409/2506 31013KT P6SM BKN012 WS020/19045KT
      TEMPO 2409/2411 SCT015
     FM241500 30015G22KT P6SM SCT015 BKN025
     FM242200 30015G22KT P6SM OVC040=

USA.gov is the U.S. government's official web portal to all federal, state and local government web resources and services.